sensor_id;sensor_type;location;lat;lon;timestamp;pressure;altitude;pressure_sealevel;temperature;humidity
11268;BME280;72685;47.474;9.416;2023-12-28T00:00:19;95787.00;;;2.35;76.63
11268;BME280;72685;47.474;9.416;2023-12-28T00:02:45;95790.78;;;2.44;74.88
11268;BME280;72685;47.474;9.416;2023-12-28T00:05:10;95791.41;;;2.51;72.44
11268;BME280;72685;47.474;9.416;2023-12-28T00:07:35;95790.44;;;2.36;72.60
11268;BME280;72685;47.474;9.416;2023-12-28T00:10:02;95785.94;;;2.14;73.52
11268;BME280;72685;47.474;9.416;2023-12-28T00:12:27;95788.69;;;2.03;73.90
11268;BME280;72685;47.474;9.416;2023-12-28T00:14:53;95788.16;;;2.23;70.70
11268;BME280;72685;47.474;9.416;2023-12-28T00:17:18;95786.53;;;2.65;67.48
11268;BME280;72685;47.474;9.416;2023-12-28T00:19:44;95785.56;;;2.71;68.43
11268;BME280;72685;47.474;9.416;2023-12-28T00:22:09;95783.34;;;3.16;63.49
11268;BME280;72685;47.474;9.416;2023-12-28T00:24:34;95775.69;;;3.52;63.61
11268;BME280;72685;47.474;9.416;2023-12-28T00:27:00;95782.59;;;3.58;62.20
11268;BME280;72685;47.474;9.416;2023-12-28T00:29:25;95780.91;;;3.42;63.79
11268;BME280;72685;47.474;9.416;2023-12-28T00:31:50;95786.88;;;3.27;64.78
11268;BME280;72685;47.474;9.416;2023-12-28T00:34:16;95795.38;;;3.34;63.16
11268;BME280;72685;47.474;9.416;2023-12-28T00:36:41;95790.16;;;3.81;59.95
11268;BME280;72685;47.474;9.416;2023-12-28T00:39:06;95778.94;;;4.68;55.81
11268;BME280;72685;47.474;9.416;2023-12-28T00:41:32;95773.03;;;4.41;59.12
11268;BME280;72685;47.474;9.416;2023-12-28T00:43:57;95779.81;;;3.74;63.15
11268;BME280;72685;47.474;9.416;2023-12-28T00:46:22;95797.09;;;3.50;65.19
11268;BME280;72685;47.474;9.416;2023-12-28T00:48:48;95791.91;;;3.29;65.64
11268;BME280;72685;47.474;9.416;2023-12-28T00:51:13;95793.75;;;3.28;65.62
11268;BME280;72685;47.474;9.416;2023-12-28T00:53:39;95791.41;;;3.32;66.10
11268;BME280;72685;47.474;9.416;2023-12-28T00:56:04;95789.09;;;3.40;64.83
11268;BME280;72685;47.474;9.416;2023-12-28T00:58:29;95794.41;;;3.45;63.99
11268;BME280;72685;47.474;9.416;2023-12-28T01:00:55;95797.34;;;3.49;63.37
11268;BME280;72685;47.474;9.416;2023-12-28T01:03:22;95798.84;;;3.40;63.57
11268;BME280;72685;47.474;9.416;2023-12-28T01:05:47;95808.00;;;3.27;64.37
11268;BME280;72685;47.474;9.416;2023-12-28T01:08:16;95798.94;;;3.18;65.50
11268;BME280;72685;47.474;9.416;2023-12-28T01:10:42;95821.09;;;3.17;63.74
11268;BME280;72685;47.474;9.416;2023-12-28T01:13:07;95809.41;;;3.08;64.75
11268;BME280;72685;47.474;9.416;2023-12-28T01:15:32;95816.53;;;3.07;65.42
11268;BME280;72685;47.474;9.416;2023-12-28T01:17:58;95808.38;;;3.09;65.03
11268;BME280;72685;47.474;9.416;2023-12-28T01:20:23;95810.44;;;3.07;65.59
11268;BME280;72685;47.474;9.416;2023-12-28T01:22:48;95823.84;;;3.00;64.89
11268;BME280;72685;47.474;9.416;2023-12-28T01:25:15;95820.22;;;2.80;67.25
11268;BME280;72685;47.474;9.416;2023-12-28T01:27:41;95831.25;;;2.77;68.27
11268;BME280;72685;47.474;9.416;2023-12-28T01:30:06;95829.34;;;2.72;69.68
11268;BME280;72685;47.474;9.416;2023-12-28T01:32:32;95839.66;;;2.74;68.41
11268;BME280;72685;47.474;9.416;2023-12-28T01:34:57;95837.31;;;2.55;71.10
11268;BME280;72685;47.474;9.416;2023-12-28T01:37:23;95838.78;;;2.25;72.58
11268;BME280;72685;47.474;9.416;2023-12-28T01:39:48;95858.72;;;1.99;75.15
11268;BME280;72685;47.474;9.416;2023-12-28T01:42:13;95868.31;;;1.88;78.49
11268;BME280;72685;47.474;9.416;2023-12-28T01:44:39;95867.84;;;1.91;80.52
11268;BME280;72685;47.474;9.416;2023-12-28T01:47:05;95860.84;;;1.80;80.99
11268;BME280;72685;47.474;9.416;2023-12-28T01:49:31;95866.81;;;1.76;83.40
11268;BME280;72685;47.474;9.416;2023-12-28T01:51:57;95867.06;;;1.74;86.60
11268;BME280;72685;47.474;9.416;2023-12-28T01:54:24;95866.69;;;1.66;85.45
11268;BME280;72685;47.474;9.416;2023-12-28T01:56:49;95871.22;;;1.70;85.26
11268;BME280;72685;47.474;9.416;2023-12-28T01:59:15;95882.53;;;1.71;83.94
11268;BME280;72685;47.474;9.416;2023-12-28T02:01:41;95874.09;;;1.52;84.21
11268;BME280;72685;47.474;9.416;2023-12-28T02:04:07;95877.41;;;1.47;84.26
11268;BME280;72685;47.474;9.416;2023-12-28T02:06:32;95884.22;;;1.43;83.76
11268;BME280;72685;47.474;9.416;2023-12-28T02:08:58;95880.78;;;1.43;81.37
11268;BME280;72685;47.474;9.416;2023-12-28T02:11:23;95871.53;;;1.57;78.04
11268;BME280;72685;47.474;9.416;2023-12-28T02:13:48;95872.66;;;1.78;76.24
11268;BME280;72685;47.474;9.416;2023-12-28T02:16:29;95873.34;;;1.90;75.33
11268;BME280;72685;47.474;9.416;2023-12-28T02:19:00;95872.94;;;2.36;70.56
11268;BME280;72685;47.474;9.416;2023-12-28T02:21:30;95863.22;;;2.58;68.25
11268;BME280;72685;47.474;9.416;2023-12-28T02:23:56;95854.41;;;3.50;61.96
11268;BME280;72685;47.474;9.416;2023-12-28T02:26:22;95863.66;;;2.72;70.66
11268;BME280;72685;47.474;9.416;2023-12-28T02:28:47;95864.22;;;3.54;62.49
11268;BME280;72685;47.474;9.416;2023-12-28T02:31:21;95856.97;;;2.86;69.20
11268;BME280;72685;47.474;9.416;2023-12-28T02:33:51;95868.00;;;2.83;68.73
11268;BME280;72685;47.474;9.416;2023-12-28T02:36:22;95865.78;;;2.75;68.87
11268;BME280;72685;47.474;9.416;2023-12-28T02:38:48;95869.28;;;3.61;62.27
11268;BME280;72685;47.474;9.416;2023-12-28T02:41:15;95855.44;;;3.49;63.74
11268;BME280;72685;47.474;9.416;2023-12-28T02:43:41;95869.78;;;3.58;63.78
11268;BME280;72685;47.474;9.416;2023-12-28T02:46:07;95870.38;;;3.65;63.32
11268;BME280;72685;47.474;9.416;2023-12-28T02:48:32;95859.66;;;4.13;59.41
11268;BME280;72685;47.474;9.416;2023-12-28T02:50:57;95861.00;;;4.73;56.33
11268;BME280;72685;47.474;9.416;2023-12-28T02:53:23;95856.38;;;5.20;54.11
11268;BME280;72685;47.474;9.416;2023-12-28T02:55:48;95853.78;;;5.51;53.38
11268;BME280;72685;47.474;9.416;2023-12-28T02:58:13;95856.19;;;5.72;53.22
11268;BME280;72685;47.474;9.416;2023-12-28T03:00:39;95869.94;;;5.29;55.23
11268;BME280;72685;47.474;9.416;2023-12-28T03:03:04;95851.44;;;4.67;58.10
11268;BME280;72685;47.474;9.416;2023-12-28T03:05:29;95848.22;;;4.55;58.98
11268;BME280;72685;47.474;9.416;2023-12-28T03:07:55;95857.88;;;4.24;60.49
11268;BME280;72685;47.474;9.416;2023-12-28T03:10:23;95863.78;;;3.99;62.72
11268;BME280;72685;47.474;9.416;2023-12-28T03:12:49;95857.94;;;3.92;62.46
11268;BME280;72685;47.474;9.416;2023-12-28T03:15:14;95852.88;;;3.91;62.25
11268;BME280;72685;47.474;9.416;2023-12-28T03:17:40;95847.88;;;3.89;62.40
11268;BME280;72685;47.474;9.416;2023-12-28T03:20:06;95840.25;;;4.03;61.44
11268;BME280;72685;47.474;9.416;2023-12-28T03:22:31;95856.94;;;4.03;61.27
11268;BME280;72685;47.474;9.416;2023-12-28T03:24:56;95845.63;;;4.13;60.85
11268;BME280;72685;47.474;9.416;2023-12-28T03:27:22;95853.63;;;3.86;67.48
11268;BME280;72685;47.474;9.416;2023-12-28T03:29:47;95851.34;;;3.31;82.14
11268;BME280;72685;47.474;9.416;2023-12-28T03:32:14;95862.81;;;3.15;87.51
11268;BME280;72685;47.474;9.416;2023-12-28T03:34:39;95863.69;;;2.99;88.96
11268;BME280;72685;47.474;9.416;2023-12-28T03:37:04;95869.88;;;2.88;88.50
11268;BME280;72685;47.474;9.416;2023-12-28T03:39:30;95892.38;;;2.90;86.31
11268;BME280;72685;47.474;9.416;2023-12-28T03:41:55;95892.59;;;2.89;87.26
11268;BME280;72685;47.474;9.416;2023-12-28T03:44:21;95891.50;;;2.85;89.37
11268;BME280;72685;47.474;9.416;2023-12-28T03:46:50;95890.59;;;2.74;91.03
11268;BME280;72685;47.474;9.416;2023-12-28T03:49:17;95890.47;;;2.64;92.80
11268;BME280;72685;47.474;9.416;2023-12-28T03:51:42;95900.63;;;2.55;93.83
11268;BME280;72685;47.474;9.416;2023-12-28T03:54:08;95898.72;;;2.51;93.38
11268;BME280;72685;47.474;9.416;2023-12-28T03:56:33;95903.53;;;2.54;92.60
11268;BME280;72685;47.474;9.416;2023-12-28T03:59:00;95899.75;;;2.50;92.14
11268;BME280;72685;47.474;9.416;2023-12-28T04:01:26;95895.47;;;2.65;90.59
11268;BME280;72685;47.474;9.416;2023-12-28T04:03:51;95901.19;;;2.57;90.03
11268;BME280;72685;47.474;9.416;2023-12-28T04:06:17;95891.50;;;2.85;84.04
11268;BME280;72685;47.474;9.416;2023-12-28T04:08:42;95890.63;;;3.01;82.11
11268;BME280;72685;47.474;9.416;2023-12-28T04:11:08;95885.59;;;2.99;81.49
11268;BME280;72685;47.474;9.416;2023-12-28T04:13:34;95887.75;;;3.02;80.10
11268;BME280;72685;47.474;9.416;2023-12-28T04:16:00;95888.41;;;3.14;78.59
11268;BME280;72685;47.474;9.416;2023-12-28T04:18:25;95880.28;;;3.21;76.19
11268;BME280;72685;47.474;9.416;2023-12-28T04:20:51;95882.50;;;3.07;78.80
11268;BME280;72685;47.474;9.416;2023-12-28T04:23:16;95881.81;;;2.90;78.69
11268;BME280;72685;47.474;9.416;2023-12-28T04:25:41;95873.59;;;2.87;79.30
11268;BME280;72685;47.474;9.416;2023-12-28T04:28:07;95868.22;;;3.03;76.02
11268;BME280;72685;47.474;9.416;2023-12-28T04:30:33;95874.56;;;3.02;75.47
11268;BME280;72685;47.474;9.416;2023-12-28T04:33:00;95871.53;;;3.15;75.32
11268;BME280;72685;47.474;9.416;2023-12-28T04:35:25;95876.91;;;2.77;78.04
11268;BME280;72685;47.474;9.416;2023-12-28T04:37:50;95869.38;;;2.91;75.84
11268;BME280;72685;47.474;9.416;2023-12-28T04:40:16;95875.63;;;3.28;73.07
11268;BME280;72685;47.474;9.416;2023-12-28T04:42:42;95878.28;;;3.33;72.36
11268;BME280;72685;47.474;9.416;2023-12-28T04:45:08;95874.34;;;3.36;72.89
11268;BME280;72685;47.474;9.416;2023-12-28T04:47:33;95880.59;;;3.25;73.45
11268;BME280;72685;47.474;9.416;2023-12-28T04:49:59;95882.44;;;3.24;73.13
11268;BME280;72685;47.474;9.416;2023-12-28T04:52:24;95888.34;;;3.36;71.17
11268;BME280;72685;47.474;9.416;2023-12-28T04:54:50;95894.00;;;3.18;72.77
11268;BME280;72685;47.474;9.416;2023-12-28T04:57:16;95886.50;;;3.10;73.04
11268;BME280;72685;47.474;9.416;2023-12-28T04:59:41;95890.09;;;3.26;69.78
11268;BME280;72685;47.474;9.416;2023-12-28T05:02:07;95886.47;;;3.32;71.29
11268;BME280;72685;47.474;9.416;2023-12-28T05:04:36;95887.94;;;3.22;71.23
11268;BME280;72685;47.474;9.416;2023-12-28T05:07:03;95881.59;;;3.18;71.19
11268;BME280;72685;47.474;9.416;2023-12-28T05:09:28;95890.78;;;3.16;71.70
11268;BME280;72685;47.474;9.416;2023-12-28T05:11:54;95888.63;;;2.86;74.50
11268;BME280;72685;47.474;9.416;2023-12-28T05:14:19;95889.03;;;2.78;73.16
11268;BME280;72685;47.474;9.416;2023-12-28T05:16:45;95891.00;;;2.66;74.63
11268;BME280;72685;47.474;9.416;2023-12-28T05:19:10;95888.84;;;2.63;72.49
11268;BME280;72685;47.474;9.416;2023-12-28T05:21:35;95895.13;;;2.79;72.37
11268;BME280;72685;47.474;9.416;2023-12-28T05:24:01;95882.50;;;2.81;69.96
11268;BME280;72685;47.474;9.416;2023-12-28T05:26:26;95881.41;;;3.03;69.05
11268;BME280;72685;47.474;9.416;2023-12-28T05:28:52;95880.22;;;3.16;67.38
11268;BME280;72685;47.474;9.416;2023-12-28T05:31:17;95875.84;;;3.27;67.19
11268;BME280;72685;47.474;9.416;2023-12-28T05:33:43;95878.94;;;3.45;66.11
11268;BME280;72685;47.474;9.416;2023-12-28T05:36:08;95873.53;;;3.62;65.16
11268;BME280;72685;47.474;9.416;2023-12-28T05:38:33;95879.94;;;3.71;65.07
11268;BME280;72685;47.474;9.416;2023-12-28T05:40:59;95874.56;;;3.61;65.32
11268;BME280;72685;47.474;9.416;2023-12-28T05:43:25;95877.63;;;3.48;65.24
11268;BME280;72685;47.474;9.416;2023-12-28T05:45:50;95876.66;;;3.27;67.08
11268;BME280;72685;47.474;9.416;2023-12-28T05:48:15;95864.84;;;3.35;64.53
11268;BME280;72685;47.474;9.416;2023-12-28T05:50:41;95865.38;;;3.37;65.72
11268;BME280;72685;47.474;9.416;2023-12-28T05:53:06;95872.59;;;3.46;65.69
11268;BME280;72685;47.474;9.416;2023-12-28T05:55:31;95876.28;;;3.45;64.01
11268;BME280;72685;47.474;9.416;2023-12-28T05:57:57;95872.28;;;3.38;65.21
11268;BME280;72685;47.474;9.416;2023-12-28T06:00:22;95867.53;;;3.40;63.12
11268;BME280;72685;47.474;9.416;2023-12-28T06:02:47;95862.06;;;3.51;63.17
11268;BME280;72685;47.474;9.416;2023-12-28T06:05:17;95860.72;;;3.81;62.32
11268;BME280;72685;47.474;9.416;2023-12-28T06:07:42;95862.06;;;3.83;61.30
11268;BME280;72685;47.474;9.416;2023-12-28T06:10:09;95860.09;;;4.05;59.43
11268;BME280;72685;47.474;9.416;2023-12-28T06:12:34;95864.97;;;3.82;63.29
11268;BME280;72685;47.474;9.416;2023-12-28T06:15:00;95856.75;;;3.78;62.30
11268;BME280;72685;47.474;9.416;2023-12-28T06:17:26;95862.03;;;3.78;62.61
11268;BME280;72685;47.474;9.416;2023-12-28T06:19:51;95861.50;;;3.76;60.48
11268;BME280;72685;47.474;9.416;2023-12-28T06:22:17;95856.84;;;3.93;60.19
11268;BME280;72685;47.474;9.416;2023-12-28T06:24:42;95858.53;;;4.04;59.57
11268;BME280;72685;47.474;9.416;2023-12-28T06:27:07;95851.44;;;4.15;57.86
11268;BME280;72685;47.474;9.416;2023-12-28T06:29:33;95851.78;;;4.28;58.94
11268;BME280;72685;47.474;9.416;2023-12-28T06:31:58;95852.91;;;4.38;57.81
11268;BME280;72685;47.474;9.416;2023-12-28T06:34:24;95849.31;;;4.64;56.52
11268;BME280;72685;47.474;9.416;2023-12-28T06:36:49;95854.91;;;4.72;56.38
11268;BME280;72685;47.474;9.416;2023-12-28T06:39:14;95851.13;;;4.53;58.00
11268;BME280;72685;47.474;9.416;2023-12-28T06:41:40;95845.28;;;4.46;58.16
11268;BME280;72685;47.474;9.416;2023-12-28T06:44:05;95850.69;;;4.71;56.21
11268;BME280;72685;47.474;9.416;2023-12-28T06:46:31;95851.41;;;4.57;57.60
11268;BME280;72685;47.474;9.416;2023-12-28T06:48:56;95850.63;;;4.61;58.30
11268;BME280;72685;47.474;9.416;2023-12-28T06:51:24;95853.22;;;4.46;58.47
11268;BME280;72685;47.474;9.416;2023-12-28T06:53:49;95851.88;;;4.44;58.50
11268;BME280;72685;47.474;9.416;2023-12-28T06:56:15;95842.13;;;4.54;56.32
11268;BME280;72685;47.474;9.416;2023-12-28T06:58:41;95840.34;;;4.65;57.54
11268;BME280;72685;47.474;9.416;2023-12-28T07:01:06;95853.34;;;4.71;56.75
11268;BME280;72685;47.474;9.416;2023-12-28T07:03:32;95844.59;;;4.71;57.01
11268;BME280;72685;47.474;9.416;2023-12-28T07:05:58;95843.28;;;4.73;55.73
11268;BME280;72685;47.474;9.416;2023-12-28T07:08:24;95840.47;;;5.00;55.21
11268;BME280;72685;47.474;9.416;2023-12-28T07:10:49;95839.16;;;5.13;55.16
11268;BME280;72685;47.474;9.416;2023-12-28T07:13:15;95844.19;;;5.14;55.41
11268;BME280;72685;47.474;9.416;2023-12-28T07:15:40;95843.91;;;5.11;56.26
11268;BME280;72685;47.474;9.416;2023-12-28T07:18:06;95845.53;;;5.17;55.94
11268;BME280;72685;47.474;9.416;2023-12-28T07:20:31;95838.66;;;5.26;55.19
11268;BME280;72685;47.474;9.416;2023-12-28T07:22:56;95838.13;;;5.29;54.79
11268;BME280;72685;47.474;9.416;2023-12-28T07:25:22;95837.06;;;5.30;55.97
11268;BME280;72685;47.474;9.416;2023-12-28T07:27:47;95837.63;;;5.57;53.96
11268;BME280;72685;47.474;9.416;2023-12-28T07:30:13;95837.13;;;5.85;52.46
11268;BME280;72685;47.474;9.416;2023-12-28T07:32:38;95842.16;;;5.92;53.53
11268;BME280;72685;47.474;9.416;2023-12-28T07:35:04;95838.69;;;5.76;53.69
11268;BME280;72685;47.474;9.416;2023-12-28T07:37:29;95846.09;;;5.54;55.99
11268;BME280;72685;47.474;9.416;2023-12-28T07:39:55;95856.63;;;5.09;58.90
11268;BME280;72685;47.474;9.416;2023-12-28T07:42:20;95865.25;;;4.69;60.37
11268;BME280;72685;47.474;9.416;2023-12-28T07:44:45;95872.72;;;4.30;63.74
11268;BME280;72685;47.474;9.416;2023-12-28T07:47:11;95877.34;;;4.08;65.03
11268;BME280;72685;47.474;9.416;2023-12-28T07:49:37;95882.84;;;4.06;66.56
11268;BME280;72685;47.474;9.416;2023-12-28T07:52:03;95878.28;;;3.92;68.10
11268;BME280;72685;47.474;9.416;2023-12-28T07:54:28;95883.34;;;3.35;72.47
11268;BME280;72685;47.474;9.416;2023-12-28T07:56:54;95903.69;;;3.39;74.96
11268;BME280;72685;47.474;9.416;2023-12-28T07:59:19;95918.25;;;3.42;76.79
11268;BME280;72685;47.474;9.416;2023-12-28T08:01:44;95917.38;;;3.31;77.80
11268;BME280;72685;47.474;9.416;2023-12-28T08:04:10;95922.16;;;3.34;78.54
11268;BME280;72685;47.474;9.416;2023-12-28T08:06:36;95921.56;;;3.32;79.22
11268;BME280;72685;47.474;9.416;2023-12-28T08:09:01;95925.06;;;2.89;84.12
11268;BME280;72685;47.474;9.416;2023-12-28T08:11:29;95932.63;;;2.81;85.10
11268;BME280;72685;47.474;9.416;2023-12-28T08:13:55;95936.75;;;2.93;84.72
11268;BME280;72685;47.474;9.416;2023-12-28T08:16:20;95931.25;;;2.78;86.84
11268;BME280;72685;47.474;9.416;2023-12-28T08:18:46;95926.06;;;2.83;85.79
11268;BME280;72685;47.474;9.416;2023-12-28T08:21:11;95928.81;;;2.93;85.46
11268;BME280;72685;47.474;9.416;2023-12-28T08:23:37;95931.06;;;2.85;86.56
11268;BME280;72685;47.474;9.416;2023-12-28T08:26:02;95916.84;;;2.86;85.92
11268;BME280;72685;47.474;9.416;2023-12-28T08:28:28;95905.13;;;2.77;86.75
11268;BME280;72685;47.474;9.416;2023-12-28T08:30:53;95907.13;;;2.91;86.95
11268;BME280;72685;47.474;9.416;2023-12-28T08:33:19;95904.13;;;3.04;84.99
11268;BME280;72685;47.474;9.416;2023-12-28T08:35:45;95897.97;;;3.20;84.80
11268;BME280;72685;47.474;9.416;2023-12-28T08:38:11;95901.56;;;3.36;84.17
11268;BME280;72685;47.474;9.416;2023-12-28T08:40:36;95898.91;;;3.36;82.61
11268;BME280;72685;47.474;9.416;2023-12-28T08:43:01;95900.59;;;3.20;82.78
11268;BME280;72685;47.474;9.416;2023-12-28T08:45:27;95896.97;;;3.27;81.55
11268;BME280;72685;47.474;9.416;2023-12-28T08:47:52;95899.13;;;3.30;80.29
11268;BME280;72685;47.474;9.416;2023-12-28T08:50:17;95906.22;;;3.51;79.14
11268;BME280;72685;47.474;9.416;2023-12-28T08:52:43;95903.84;;;3.54;77.09
11268;BME280;72685;47.474;9.416;2023-12-28T08:55:08;95905.63;;;3.76;74.98
11268;BME280;72685;47.474;9.416;2023-12-28T08:57:34;95903.28;;;4.16;71.30
11268;BME280;72685;47.474;9.416;2023-12-28T08:59:59;95902.31;;;4.27;71.67
11268;BME280;72685;47.474;9.416;2023-12-28T09:02:29;95888.06;;;4.33;72.23
11268;BME280;72685;47.474;9.416;2023-12-28T09:04:54;95896.59;;;4.45;72.09
11268;BME280;72685;47.474;9.416;2023-12-28T09:07:19;95889.75;;;4.54;71.90
11268;BME280;72685;47.474;9.416;2023-12-28T09:09:45;95887.47;;;4.68;69.66
11268;BME280;72685;47.474;9.416;2023-12-28T09:12:11;95881.66;;;4.71;69.44
11268;BME280;72685;47.474;9.416;2023-12-28T09:14:37;95886.47;;;4.89;69.47
11268;BME280;72685;47.474;9.416;2023-12-28T09:17:02;95878.06;;;5.02;67.85
11268;BME280;72685;47.474;9.416;2023-12-28T09:19:27;95876.22;;;5.08;69.12
11268;BME280;72685;47.474;9.416;2023-12-28T09:21:53;95882.09;;;5.25;69.69
11268;BME280;72685;47.474;9.416;2023-12-28T09:24:18;95887.66;;;5.28;69.28
11268;BME280;72685;47.474;9.416;2023-12-28T09:26:44;95891.94;;;5.45;67.64
11268;BME280;72685;47.474;9.416;2023-12-28T09:29:09;95888.78;;;5.58;67.15
11268;BME280;72685;47.474;9.416;2023-12-28T09:31:35;95890.09;;;5.60;67.94
11268;BME280;72685;47.474;9.416;2023-12-28T09:34:00;95882.44;;;5.64;67.91
11268;BME280;72685;47.474;9.416;2023-12-28T09:36:26;95877.91;;;5.74;67.19
11268;BME280;72685;47.474;9.416;2023-12-28T09:38:51;95885.38;;;5.88;65.64
11268;BME280;72685;47.474;9.416;2023-12-28T09:41:18;95883.28;;;5.90;65.46
11268;BME280;72685;47.474;9.416;2023-12-28T09:43:53;95884.06;;;5.95;64.74
11268;BME280;72685;47.474;9.416;2023-12-28T09:46:20;95874.50;;;6.09;63.32
11268;BME280;72685;47.474;9.416;2023-12-28T09:48:45;95873.72;;;6.19;64.45
11268;BME280;72685;47.474;9.416;2023-12-28T09:51:12;95877.94;;;6.25;64.63
11268;BME280;72685;47.474;9.416;2023-12-28T09:53:37;95881.38;;;6.30;68.79
11268;BME280;72685;47.474;9.416;2023-12-28T09:56:03;95881.34;;;6.35;68.63
11268;BME280;72685;47.474;9.416;2023-12-28T09:58:29;95886.66;;;6.41;69.02
11268;BME280;72685;47.474;9.416;2023-12-28T10:00:57;95885.59;;;6.42;68.41
11268;BME280;72685;47.474;9.416;2023-12-28T10:03:22;95880.28;;;6.42;67.38
11268;BME280;72685;47.474;9.416;2023-12-28T10:05:48;95875.50;;;6.44;66.40
11268;BME280;72685;47.474;9.416;2023-12-28T10:08:14;95875.25;;;6.40;65.45
11268;BME280;72685;47.474;9.416;2023-12-28T10:10:41;95893.34;;;6.18;68.84
11268;BME280;72685;47.474;9.416;2023-12-28T10:13:10;95881.63;;;6.29;69.64
11268;BME280;72685;47.474;9.416;2023-12-28T10:15:36;95891.47;;;6.28;70.42
11268;BME280;72685;47.474;9.416;2023-12-28T10:18:04;95894.91;;;6.14;67.51
11268;BME280;72685;47.474;9.416;2023-12-28T10:20:31;95889.88;;;6.07;66.78
11268;BME280;72685;47.474;9.416;2023-12-28T10:22:58;95900.50;;;5.92;68.38
11268;BME280;72685;47.474;9.416;2023-12-28T10:25:23;95897.88;;;5.87;70.27
11268;BME280;72685;47.474;9.416;2023-12-28T10:27:52;95894.66;;;5.95;70.87
11268;BME280;72685;47.474;9.416;2023-12-28T10:30:19;95903.16;;;6.02;71.72
11268;BME280;72685;47.474;9.416;2023-12-28T10:32:45;95889.38;;;5.95;72.06
11268;BME280;72685;47.474;9.416;2023-12-28T10:35:11;95896.78;;;6.03;72.28
11268;BME280;72685;47.474;9.416;2023-12-28T10:37:39;95896.81;;;5.93;76.59
11268;BME280;72685;47.474;9.416;2023-12-28T10:40:06;95892.03;;;5.90;78.83
11268;BME280;72685;47.474;9.416;2023-12-28T10:42:34;95891.50;;;5.93;77.96
11268;BME280;72685;47.474;9.416;2023-12-28T10:45:03;95877.69;;;5.96;78.25
11268;BME280;72685;47.474;9.416;2023-12-28T10:47:38;95881.16;;;5.97;76.75
11268;BME280;72685;47.474;9.416;2023-12-28T10:50:08;95877.91;;;5.84;74.21
11268;BME280;72685;47.474;9.416;2023-12-28T10:52:36;95876.38;;;5.89;72.70
11268;BME280;72685;47.474;9.416;2023-12-28T10:57:52;95876.06;;;5.65;70.38
11268;BME280;72685;47.474;9.416;2023-12-28T11:00:23;95867.56;;;5.63;70.35
11268;BME280;72685;47.474;9.416;2023-12-28T11:02:54;95870.50;;;5.71;70.15
11268;BME280;72685;47.474;9.416;2023-12-28T11:05:22;95864.13;;;5.72;69.23
11268;BME280;72685;47.474;9.416;2023-12-28T11:07:49;95864.41;;;5.76;69.32
11268;BME280;72685;47.474;9.416;2023-12-28T11:10:16;95869.75;;;5.86;69.06
11268;BME280;72685;47.474;9.416;2023-12-28T11:12:43;95868.16;;;5.90;69.77
11268;BME280;72685;47.474;9.416;2023-12-28T11:15:09;95860.44;;;5.94;69.76
11268;BME280;72685;47.474;9.416;2023-12-28T11:17:37;95864.69;;;6.05;69.89
11268;BME280;72685;47.474;9.416;2023-12-28T11:20:03;95863.09;;;6.19;69.53
11268;BME280;72685;47.474;9.416;2023-12-28T11:22:31;95855.34;;;6.32;67.94
11268;BME280;72685;47.474;9.416;2023-12-28T11:24:56;95856.94;;;6.44;67.97
11268;BME280;72685;47.474;9.416;2023-12-28T11:27:22;95848.41;;;6.52;68.12
11268;BME280;72685;47.474;9.416;2023-12-28T11:29:49;95839.88;;;6.70;64.53
11268;BME280;72685;47.474;9.416;2023-12-28T11:32:14;95838.09;;;7.04;61.07
11268;BME280;72685;47.474;9.416;2023-12-28T11:34:40;95831.16;;;7.13;61.08
11268;BME280;72685;47.474;9.416;2023-12-28T11:37:16;95834.91;;;7.07;65.99
11268;BME280;72685;47.474;9.416;2023-12-28T11:39:44;95838.69;;;6.91;67.79
11268;BME280;72685;47.474;9.416;2023-12-28T11:42:10;95834.16;;;6.97;68.68
11268;BME280;72685;47.474;9.416;2023-12-28T11:44:43;95841.34;;;6.91;70.45
11268;BME280;72685;47.474;9.416;2023-12-28T11:47:16;95838.44;;;6.87;71.79
11268;BME280;72685;47.474;9.416;2023-12-28T11:49:42;95839.81;;;6.80;73.87
11268;BME280;72685;47.474;9.416;2023-12-28T11:52:22;95838.22;;;6.74;72.20
11268;BME280;72685;47.474;9.416;2023-12-28T11:54:50;95836.97;;;6.66;73.94
11268;BME280;72685;47.474;9.416;2023-12-28T11:57:16;95824.75;;;6.65;73.07
11268;BME280;72685;47.474;9.416;2023-12-28T11:59:41;95829.00;;;6.66;75.93
11268;BME280;72685;47.474;9.416;2023-12-28T12:02:07;95832.00;;;6.34;79.21
11268;BME280;72685;47.474;9.416;2023-12-28T12:04:34;95824.91;;;6.05;82.08
11268;BME280;72685;47.474;9.416;2023-12-28T12:07:01;95822.81;;;5.97;80.90
11268;BME280;72685;47.474;9.416;2023-12-28T12:09:28;95824.63;;;5.81;79.18
11268;BME280;72685;47.474;9.416;2023-12-28T12:11:53;95826.50;;;5.91;80.94
11268;BME280;72685;47.474;9.416;2023-12-28T12:14:19;95822.81;;;5.97;82.92
11268;BME280;72685;47.474;9.416;2023-12-28T12:16:44;95824.88;;;6.15;82.49
11268;BME280;72685;47.474;9.416;2023-12-28T12:19:10;95827.00;;;6.28;82.22
11268;BME280;72685;47.474;9.416;2023-12-28T12:21:37;95825.13;;;6.28;81.49
11268;BME280;72685;47.474;9.416;2023-12-28T12:24:03;95815.81;;;6.41;80.44
11268;BME280;72685;47.474;9.416;2023-12-28T12:26:30;95815.78;;;6.46;80.77
11268;BME280;72685;47.474;9.416;2023-12-28T12:29:01;95817.66;;;6.35;79.13
11268;BME280;72685;47.474;9.416;2023-12-28T12:31:27;95818.13;;;6.58;75.11
11268;BME280;72685;47.474;9.416;2023-12-28T12:33:53;95810.38;;;6.71;73.20
11268;BME280;72685;47.474;9.416;2023-12-28T12:36:18;95802.09;;;6.78;72.27
11268;BME280;72685;47.474;9.416;2023-12-28T12:38:44;95806.56;;;6.87;71.75
11268;BME280;72685;47.474;9.416;2023-12-28T12:41:10;95807.31;;;6.98;71.57
11268;BME280;72685;47.474;9.416;2023-12-28T12:43:37;95802.53;;;7.00;69.48
11268;BME280;72685;47.474;9.416;2023-12-28T12:46:04;95806.19;;;7.09;68.78
11268;BME280;72685;47.474;9.416;2023-12-28T12:48:29;95804.56;;;7.13;69.20
11268;BME280;72685;47.474;9.416;2023-12-28T12:50:54;95805.63;;;7.17;68.50
11268;BME280;72685;47.474;9.416;2023-12-28T12:53:20;95797.34;;;7.19;70.89
11268;BME280;72685;47.474;9.416;2023-12-28T12:55:45;95805.06;;;7.20;69.83
11268;BME280;72685;47.474;9.416;2023-12-28T12:58:12;95808.97;;;7.33;69.75
11268;BME280;72685;47.474;9.416;2023-12-28T13:00:39;95803.38;;;7.34;70.06
11268;BME280;72685;47.474;9.416;2023-12-28T13:03:08;95798.09;;;7.29;70.90
11268;BME280;72685;47.474;9.416;2023-12-28T13:05:35;95805.78;;;7.31;71.81